Time;durP1;ratioP1;P1;durP2;ratioP2;P2;SDS_P1;SDS_P2;PMS_P1;PMS_P2;Temp;Humidity;BMP_temperature;BMP_pressure;BME280_temperature;BME280_humidity;BME280_pressure;Samples;Min_cycle;Max_cycle;Signal;HPM_P1;HPM_P2
2023/06/20 00:03:53;;;;;;;;;;;20.00;99.90;;;;;;20797335;28;19917;-74
2023/06/20 00:13:54;;;;;;;;;;;19.90;99.90;;;;;;20806209;28;19956;-73
2023/06/20 00:23:55;;;;;;;;;;;19.70;99.90;;;;;;20825149;28;19948;-73
2023/06/20 00:33:55;;;;;;;;;;;19.40;99.90;;;;;;20825580;28;20372;-74
2023/06/20 00:43:56;;;;;;;;;;;19.10;99.90;;;;;;20808470;28;19939;-73
2023/06/20 00:53:58;;;;;;;;;;;19.10;99.90;;;;;;20840626;28;20331;-73
2023/06/20 01:04:00;;;;;;;;;;;18.90;99.90;;;;;;20802658;28;19920;-73
2023/06/20 01:14:11;;;;;;;;;;;19.00;99.90;;;;;;20821886;28;19921;-73
2023/06/20 01:24:19;;;;;;;;;;;18.70;99.90;;;;;;20786965;28;19920;-73
2023/06/20 01:34:21;;;;;;;;;;;18.70;99.90;;;;;;20810870;28;20287;-74
2023/06/20 01:44:22;;;;;;;;;;;18.90;99.90;;;;;;20817862;28;19913;-73
2023/06/20 01:54:25;;;;;;;;;;;18.80;99.90;;;;;;20820608;28;20284;-73
2023/06/20 02:04:26;;;;;;;;;;;18.70;99.90;;;;;;20838232;28;20291;-73
2023/06/20 02:14:27;;;;;;;;;;;18.50;99.90;;;;;;20827856;28;20051;-73
2023/06/20 02:24:30;;;;;;;;;;;18.40;99.90;;;;;;20824933;28;19964;-73
2023/06/20 02:34:31;;;;;;;;;;;18.50;99.90;;;;;;20857348;28;19916;-73
2023/06/20 02:44:31;;;;;;;;;;;18.40;99.90;;;;;;20917286;28;19934;-73
2023/06/20 02:54:33;;;;;;;;;;;18.50;99.90;;;;;;20834685;28;19924;-73
2023/06/20 03:04:34;;;;;;;;;;;18.40;99.90;;;;;;20821779;28;19921;-73
2023/06/20 03:14:35;;;;;;;;;;;18.40;99.90;;;;;;20833271;28;19972;-74
2023/06/20 03:24:36;;;;;;;;;;;18.40;99.90;;;;;;20831716;28;19913;-74
2023/06/20 03:34:37;;;;;;;;;;;18.40;99.90;;;;;;20851699;28;19917;-73
2023/06/20 03:44:39;;;;;;;;;;;18.50;99.90;;;;;;20842883;28;19971;-75
2023/06/20 03:54:41;;;;;;;;;;;18.50;99.90;;;;;;20844616;28;20276;-74
2023/06/20 04:04:49;;;;;;;;;;;18.50;99.90;;;;;;20812510;28;19913;-76
2023/06/20 04:14:51;;;;;;;;;;;18.60;99.90;;;;;;20810799;28;19925;-76
2023/06/20 04:24:54;;;;;;;;;;;18.70;99.90;;;;;;20804866;28;20296;-76
2023/06/20 04:34:55;;;;;;;;;;;18.70;99.90;;;;;;20782511;28;20336;-76
2023/06/20 04:44:58;;;;;;;;;;;18.70;99.90;;;;;;20772237;28;19967;-76
2023/06/20 04:55:02;;;;;;;;;;;18.70;99.90;;;;;;20803570;28;19917;-76
2023/06/20 05:05:02;;;;;;;;;;;19.00;99.90;;;;;;20830720;28;19972;-76
2023/06/20 05:15:04;;;;;;;;;;;19.40;99.90;;;;;;20809676;28;19979;-76
2023/06/20 05:25:05;;;;;;;;;;;19.80;99.90;;;;;;20821023;28;19913;-76
2023/06/20 05:35:07;;;;;;;;;;;19.70;99.90;;;;;;20812509;28;19968;-76
2023/06/20 05:45:08;;;;;;;;;;;20.00;99.90;;;;;;20818004;28;20000;-76
2023/06/20 05:55:09;;;;;;;;;;;20.40;99.90;;;;;;20816819;28;19968;-76
2023/06/20 06:05:10;;;;;;;;;;;20.90;99.90;;;;;;20798791;28;20336;-77
2023/06/20 06:15:13;;;;;;;;;;;21.20;99.90;;;;;;20753000;28;19924;-76
2023/06/20 06:25:13;;;;;;;;;;;21.20;99.90;;;;;;20828905;28;19961;-76
2023/06/20 06:35:16;;;;;;;;;;;21.30;99.90;;;;;;20849946;28;19924;-76
2023/06/20 06:45:17;;;;;;;;;;;21.30;99.90;;;;;;20833280;28;19919;-76
2023/06/20 06:55:17;;;;;;;;;;;22.00;99.90;;;;;;20832625;28;19949;-74
2023/06/20 07:05:19;;;;;;;;;;;22.50;99.90;;;;;;20834970;28;20386;-73
2023/06/20 07:15:20;;;;;;;;;;;22.50;99.90;;;;;;20828889;28;19975;-74
2023/06/20 07:25:20;;;;;;;;;;;22.70;99.90;;;;;;20819786;28;20008;-74
2023/06/20 07:35:21;;;;;;;;;;;23.30;99.90;;;;;;20828720;28;20343;-74
2023/06/20 07:45:22;;;;;;;;;;;23.90;99.90;;;;;;20819903;28;20340;-74
2023/06/20 07:55:22;;;;;;;;;;;24.90;99.90;;;;;;20812309;28;19952;-74
2023/06/20 08:05:23;;;;;;;;;;;25.20;99.90;;;;;;20826036;28;20323;-74
2023/06/20 08:15:24;;;;;;;;;;;25.60;99.90;;;;;;20824587;28;19924;-74
2023/06/20 08:25:25;;;;;;;;;;;26.10;99.90;;;;;;20824205;28;19956;-72
2023/06/20 08:35:25;;;;;;;;;;;26.30;99.90;;;;;;20823340;28;19953;-72
2023/06/20 08:45:29;;;;;;;;;;;26.40;99.90;;;;;;20820822;28;20004;-72
2023/06/20 08:55:30;;;;;;;;;;;27.10;99.90;;;;;;20827996;28;19917;-73
2023/06/20 09:05:32;;;;;;;;;;;27.10;99.90;;;;;;20808683;28;19956;-73
2023/06/20 09:15:37;;;;;;;;;;;27.50;99.90;;;;;;20812727;28;20000;-72
2023/06/20 09:25:39;;;;;;;;;;;27.00;99.90;;;;;;20820860;28;19920;-71
2023/06/20 09:35:40;;;;;;;;;;;28.20;99.90;;;;;;20821145;28;20248;-74
2023/06/20 09:45:41;;;;;;;;;;;28.70;99.90;;;;;;20817152;28;19913;-75
2023/06/20 09:55:41;;;;;;;;;;;29.10;99.90;;;;;;20749992;28;19918;-77
2023/06/20 10:05:44;;;;;;;;;;;29.80;99.90;;;;;;20818771;28;19963;-79
2023/06/20 10:15:45;;;;;;;;;;;30.20;99.90;;;;;;20849170;28;20233;-78
2023/06/20 10:25:50;;;;;;;;;;;29.90;99.90;;;;;;20846446;28;19960;-78
2023/06/20 10:35:58;;;;;;;;;;;30.60;99.90;;;;;;20837298;28;20490;-78
2023/06/20 10:46:00;;;;;;;;;;;29.80;99.90;;;;;;20848005;28;19914;-78
2023/06/20 10:56:01;;;;;;;;;;;31.90;99.90;;;;;;20841082;28;20335;-77
2023/06/20 11:06:02;;;;;;;;;;;32.20;99.90;;;;;;20846646;28;19920;-77
2023/06/20 11:16:03;;;;;;;;;;;32.10;99.90;;;;;;20846013;28;19924;-78
2023/06/20 11:26:04;;;;;;;;;;;32.10;99.90;;;;;;20834220;28;19995;-78
2023/06/20 11:36:05;;;;;;;;;;;32.50;99.90;;;;;;20810794;28;19963;-77
2023/06/20 11:46:06;;;;;;;;;;;32.70;95.50;;;;;;20812612;28;19918;-77
2023/06/20 11:56:08;;;;;;;;;;;33.20;92.50;;;;;;20757344;28;19921;-79
2023/06/20 12:06:23;;;;;;;;;;;33.20;93.10;;;;;;20769671;28;19913;-80
2023/06/20 12:16:24;;;;;;;;;;;34.00;92.80;;;;;;20775839;28;19979;-79
2023/06/20 12:26:25;;;;;;;;;;;34.40;91.70;;;;;;20772024;28;20277;-79
2023/06/20 12:36:26;;;;;;;;;;;34.70;86.70;;;;;;20767340;28;20350;-78
2023/06/20 12:46:27;;;;;;;;;;;34.00;91.90;;;;;;20825334;28;20414;-78
2023/06/20 12:56:27;;;;;;;;;;;34.40;90.30;;;;;;20824340;28;20372;-77
2023/06/20 13:06:28;;;;;;;;;;;34.30;90.80;;;;;;20855264;28;19912;-79
2023/06/20 13:16:29;;;;;;;;;;;34.40;86.60;;;;;;20863564;28;19917;-79
2023/06/20 13:26:29;;;;;;;;;;;34.00;86.40;;;;;;20870272;28;19936;-77
2023/06/20 13:36:32;;;;;;;;;;;34.50;85.00;;;;;;20864159;28;19956;-78
2023/06/20 13:46:32;;;;;;;;;;;33.20;85.10;;;;;;20851136;28;19947;-79
2023/06/20 13:56:33;;;;;;;;;;;34.50;86.50;;;;;;20884355;28;20009;-80
2023/06/20 14:06:34;;;;;;;;;;;33.60;88.00;;;;;;20859065;28;20358;-77
2023/06/20 14:16:35;;;;;;;;;;;34.50;89.80;;;;;;20821085;28;19976;-76
2023/06/20 14:26:35;;;;;;;;;;;34.60;85.30;;;;;;20830387;28;20354;-77
2023/06/20 14:36:37;;;;;;;;;;;34.20;84.30;;;;;;20832417;28;19917;-77
2023/06/20 14:46:38;;;;;;;;;;;33.40;85.90;;;;;;20815833;28;20043;-77
2023/06/20 14:56:39;;;;;;;;;;;33.40;86.00;;;;;;20818378;28;19932;-78
2023/06/20 15:06:39;;;;;;;;;;;33.90;86.10;;;;;;20808015;28;19961;-76
2023/06/20 15:16:40;;;;;;;;;;;34.60;84.50;;;;;;20828326;28;20340;-77
2023/06/20 15:26:41;;;;;;;;;;;33.20;85.30;;;;;;20822613;28;19920;-78
2023/06/20 15:36:41;;;;;;;;;;;32.00;91.70;;;;;;20859950;28;19928;-79
2023/06/20 15:46:42;;;;;;;;;;;30.80;99.90;;;;;;20864989;28;19952;-78
2023/06/20 15:56:43;;;;;;;;;;;29.30;99.90;;;;;;20833805;28;19924;-73
2023/06/20 16:06:43;;;;;;;;;;;28.70;99.90;;;;;;20825066;28;19957;-71
2023/06/20 16:16:44;;;;;;;;;;;28.40;99.90;;;;;;20843875;28;19917;-72
2023/06/20 16:26:45;;;;;;;;;;;23.90;99.90;;;;;;20839294;28;19944;-73
2023/06/20 16:36:45;;;;;;;;;;;23.40;99.90;;;;;;20831549;28;19921;-72
2023/06/20 16:46:46;;;;;;;;;;;23.90;99.90;;;;;;20765451;28;19928;-73
2023/06/20 16:56:47;;;;;;;;;;;24.10;99.90;;;;;;20812298;28;20023;-73
2023/06/20 17:06:47;;;;;;;;;;;23.60;99.90;;;;;;20813480;28;19920;-73
2023/06/20 17:16:48;;;;;;;;;;;24.40;99.90;;;;;;20819970;28;19971;-71
2023/06/20 17:26:49;;;;;;;;;;;24.30;99.90;;;;;;20818221;28;19917;-72
2023/06/20 17:36:49;;;;;;;;;;;24.10;99.90;;;;;;20812723;28;19923;-72
2023/06/20 17:46:52;;;;;;;;;;;23.80;99.90;;;;;;20827921;28;20344;-72
2023/06/20 17:56:52;;;;;;;;;;;23.70;99.90;;;;;;20823482;28;20349;-72
2023/06/20 18:06:53;;;;;;;;;;;23.60;99.90;;;;;;20848683;28;19971;-72
2023/06/20 18:16:54;;;;;;;;;;;23.30;99.90;;;;;;20829183;28;19917;-72
2023/06/20 18:26:55;;;;;;;;;;;23.20;99.90;;;;;;20819664;28;19983;-71
2023/06/20 18:36:55;;;;;;;;;;;22.70;99.90;;;;;;20822679;28;19925;-75
2023/06/20 18:46:57;;;;;;;;;;;22.40;99.90;;;;;;20790752;28;20335;-75
2023/06/20 18:56:58;;;;;;;;;;;22.70;99.90;;;;;;20789298;28;19928;-75
2023/06/20 19:06:59;;;;;;;;;;;23.00;99.90;;;;;;20788822;28;19989;-74
2023/06/20 19:17:00;;;;;;;;;;;22.40;99.90;;;;;;20800701;28;19924;-75
2023/06/20 19:27:01;;;;;;;;;;;22.10;99.90;;;;;;20787283;28;20376;-76
2023/06/20 19:37:02;;;;;;;;;;;22.00;99.90;;;;;;20819706;28;19924;-77
2023/06/20 19:47:02;;;;;;;;;;;22.10;99.90;;;;;;20809412;28;19920;-77
2023/06/20 19:57:03;;;;;;;;;;;22.10;99.90;;;;;;20803480;28;19921;-76
2023/06/20 20:07:04;;;;;;;;;;;22.10;99.90;;;;;;20803388;28;20295;-76
2023/06/20 20:17:05;;;;;;;;;;;21.80;99.90;;;;;;20819893;28;19917;-76
2023/06/20 20:27:09;;;;;;;;;;;21.80;99.90;;;;;;20816653;28;19917;-77
2023/06/20 20:37:10;;;;;;;;;;;21.90;99.90;;;;;;20818109;28;20015;-76
2023/06/20 20:47:11;;;;;;;;;;;21.70;99.90;;;;;;20835390;28;19913;-77
2023/06/20 20:57:11;;;;;;;;;;;21.90;99.90;;;;;;20766223;28;19917;-76
2023/06/20 21:07:12;;;;;;;;;;;21.90;99.90;;;;;;20845541;28;20299;-77
2023/06/20 21:17:14;;;;;;;;;;;21.70;99.90;;;;;;20818231;28;19917;-77
2023/06/20 21:27:15;;;;;;;;;;;21.40;99.90;;;;;;20800939;28;19920;-77
2023/06/20 21:37:16;;;;;;;;;;;21.50;99.90;;;;;;20797902;28;20116;-77
2023/06/20 21:47:17;;;;;;;;;;;21.20;99.90;;;;;;20785586;28;20004;-74
2023/06/20 21:57:19;;;;;;;;;;;20.80;99.90;;;;;;20811100;28;20464;-75
2023/06/20 22:07:19;;;;;;;;;;;20.20;99.90;;;;;;20792876;28;19929;-75
2023/06/20 22:17:20;;;;;;;;;;;19.80;99.90;;;;;;20797414;28;19917;-75
2023/06/20 22:27:21;;;;;;;;;;;19.50;99.90;;;;;;20795967;28;20418;-74
2023/06/20 22:37:23;;;;;;;;;;;19.20;99.90;;;;;;20791920;28;20028;-74
2023/06/20 22:47:24;;;;;;;;;;;19.20;99.90;;;;;;20793080;28;19913;-74
2023/06/20 22:57:25;;;;;;;;;;;19.20;99.90;;;;;;20791823;28;20349;-74
2023/06/20 23:07:26;;;;;;;;;;;19.10;99.90;;;;;;20784829;28;19913;-75
2023/06/20 23:17:26;;;;;;;;;;;18.90;99.90;;;;;;20782009;28;20314;-76
2023/06/20 23:27:27;;;;;;;;;;;18.80;99.90;;;;;;20821408;28;20303;-75
2023/06/20 23:37:28;;;;;;;;;;;18.70;99.90;;;;;;20835018;28;20391;-75
2023/06/20 23:47:30;;;;;;;;;;;18.80;99.90;;;;;;20832236;28;20004;-75
2023/06/20 23:57:30;;;;;;;;;;;18.80;99.90;;;;;;20846108;28;19917;-75
